EEEI

Ämari Air Base Airport

Keila, Estonia
METAR EEEI 201650Z VRB02KT 9999 OVC013 M02/M03 Q1009 R24/190094 NOSIG
Observed Flight Rules
Jan-20 @ 16:50 UTC (12 hours ago) Marginal Visual Flight Rules
Wind Visibility Clouds
Variable at 2 knots 10,000+ meters
  • Overcast at 1,300' AGL
Temperatures Readings
Current -2°C / 28°F
Dewpoint -3°C / 27°F
Humidity 93%
Altimeter 29.79" Hg
Pressure 1009 hPa
Elevation 20
METAR EEEI 201650Z VRB02KT 9999 OVC013 M02/M03 Q1009 R24/190094 NOSIG
Observed Flight Rules
Jan-20 @ 16:50 UTC
(12 hours ago)
MVFR
Wind Visibility
Variable at 2 knots 10,000+ meters
Clouds
  • Overcast at 1,300' AGL
Temperature Dewpoint
-2°C / 28°F -3°C / 27°F
Humidity Altimeter Pressure
93% 29.79" Hg 1009 hPa